createdAt,value
2018-12-24T00:00:47.122Z,52.19
2018-12-24T00:03:13.505Z,52.54
2018-12-24T00:05:39.789Z,52.21
2018-12-24T00:08:06.124Z,52.58
2018-12-24T00:10:32.507Z,52.36
2018-12-24T00:12:58.795Z,52.31
2018-12-24T00:15:25.125Z,52.42
2018-12-24T00:17:51.527Z,52.02
2018-12-24T00:20:17.911Z,52.40
2018-12-24T00:22:44.241Z,52.29
2018-12-24T00:25:10.633Z,52.34
2018-12-24T00:27:36.917Z,52.58
2018-12-24T00:30:03.239Z,51.90
2018-12-24T00:32:29.528Z,51.75
2018-12-24T00:34:56.071Z,52.02
2018-12-24T00:37:22.359Z,52.10
2018-12-24T00:39:48.641Z,51.51
2018-12-24T00:42:15.907Z,51.73
2018-12-24T00:44:43.264Z,51.56
2018-12-24T00:47:09.543Z,51.45
2018-12-24T00:49:35.826Z,51.24
2018-12-24T00:52:02.253Z,51.67
2018-12-24T00:54:28.597Z,52.00
2018-12-24T00:56:54.931Z,51.81
2018-12-24T00:59:21.250Z,51.52
2018-12-24T01:01:48.882Z,52.18
2018-12-24T01:04:15.821Z,51.60
2018-12-24T01:06:42.247Z,51.41
2018-12-24T01:09:08.528Z,51.86
2018-12-24T01:11:34.814Z,51.50
2018-12-24T01:14:01.229Z,51.45
2018-12-24T01:16:27.505Z,51.41
2018-12-24T01:18:53.780Z,51.25
2018-12-24T01:21:20.094Z,50.62
2018-12-24T01:23:46.376Z,50.50
2018-12-24T01:26:12.663Z,50.09
2018-12-24T01:28:38.985Z,50.12
2018-12-24T01:31:05.275Z,50.20
2018-12-24T01:33:31.561Z,49.91
2018-12-24T01:35:58.071Z,50.09
2018-12-24T01:38:24.354Z,50.35
2018-12-24T01:40:50.635Z,49.76
2018-12-24T01:43:16.953Z,49.72
2018-12-24T01:45:43.230Z,50.47
2018-12-24T01:48:09.512Z,50.11
2018-12-24T01:50:35.840Z,49.96
2018-12-24T01:53:02.117Z,49.66
2018-12-24T01:55:28.401Z,49.41
2018-12-24T01:57:54.779Z,49.82
2018-12-24T02:00:21.063Z,49.82
2018-12-24T02:02:47.344Z,49.18
2018-12-24T02:05:13.647Z,49.58
2018-12-24T02:07:39.935Z,49.86
2018-12-24T02:10:06.217Z,49.93
2018-12-24T02:12:32.552Z,50.14
2018-12-24T02:14:58.835Z,50.02
2018-12-24T02:17:25.217Z,50.77
2018-12-24T02:19:51.532Z,50.27
2018-12-24T02:22:17.818Z,50.46
2018-12-24T02:24:44.102Z,49.81
2018-12-24T02:27:10.415Z,49.97
2018-12-24T02:29:36.818Z,49.58
2018-12-24T02:32:03.092Z,49.57
2018-12-24T02:34:29.411Z,49.25
2018-12-24T02:36:55.702Z,48.79
2018-12-24T02:39:21.981Z,48.88
2018-12-24T02:41:48.299Z,48.67
2018-12-24T02:44:14.692Z,48.06
2018-12-24T02:46:40.998Z,47.53
2018-12-24T02:49:07.282Z,47.24
2018-12-24T02:51:33.675Z,46.45
2018-12-24T02:54:00.069Z,46.66
2018-12-24T02:56:26.388Z,46.53
2018-12-24T02:58:52.836Z,46.96
2018-12-24T03:01:19.219Z,46.14
2018-12-24T03:03:45.537Z,45.66
2018-12-24T03:06:11.825Z,45.40
2018-12-24T03:08:38.104Z,45.19
2018-12-24T03:11:04.511Z,45.73
2018-12-24T03:13:30.794Z,45.14
2018-12-24T03:15:57.084Z,44.86
2018-12-24T03:18:23.416Z,44.35
2018-12-24T03:20:49.704Z,44.59
2018-12-24T03:23:15.990Z,44.94
2018-12-24T03:25:42.297Z,45.19
2018-12-24T03:28:08.682Z,44.89
2018-12-24T03:30:34.961Z,44.48
2018-12-24T03:33:01.310Z,43.89
2018-12-24T03:35:27.657Z,43.78
2018-12-24T03:37:53.938Z,43.91
2018-12-24T03:40:20.458Z,43.75
2018-12-24T03:42:46.745Z,43.34
2018-12-24T03:45:13.129Z,43.82
2018-12-24T03:47:39.550Z,43.75
2018-12-24T03:50:05.841Z,44.22
2018-12-24T03:52:32.145Z,44.66
2018-12-24T03:57:38.114Z,44.96
2018-12-24T04:03:04.890Z,45.08
2018-12-24T04:05:31.178Z,44.04
2018-12-24T04:07:57.575Z,43.21
2018-12-24T04:10:23.904Z,43.54
2018-12-24T04:12:50.187Z,43.55
2018-12-24T04:15:16.561Z,43.35
2018-12-24T04:17:42.993Z,43.30
2018-12-24T04:20:09.483Z,43.14
2018-12-24T04:22:35.771Z,43.04
2018-12-24T04:25:02.192Z,43.13
2018-12-24T04:27:28.480Z,42.89
2018-12-24T04:29:54.754Z,42.93
2018-12-24T04:32:21.063Z,42.30
2018-12-24T04:34:47.349Z,42.58
2018-12-24T04:37:13.730Z,42.24
2018-12-24T04:39:40.058Z,42.35
2018-12-24T04:42:06.335Z,43.25
2018-12-24T04:44:32.618Z,43.39
2018-12-24T04:46:59.029Z,43.02
2018-12-24T04:49:25.304Z,43.06
2018-12-24T04:51:51.587Z,41.90
2018-12-24T04:54:17.903Z,41.47
2018-12-24T04:56:44.188Z,40.29
2018-12-24T04:59:10.466Z,40.63
2018-12-24T05:01:36.878Z,40.94
2018-12-24T05:04:03.167Z,40.91
2018-12-24T05:06:29.442Z,40.97
2018-12-24T05:08:55.761Z,40.61
2018-12-24T05:11:22.061Z,40.39
2018-12-24T05:13:48.359Z,41.24
2018-12-24T05:16:14.682Z,40.45
2018-12-24T05:18:40.973Z,40.09
2018-12-24T05:21:07.255Z,40.75
2018-12-24T05:23:33.595Z,41.06
2018-12-24T05:25:59.881Z,40.96
2018-12-24T05:28:26.241Z,40.44
2018-12-24T05:30:52.714Z,40.08
2018-12-24T05:33:19.133Z,40.11
2018-12-24T05:35:45.519Z,39.73
2018-12-24T05:38:11.945Z,39.56
2018-12-24T05:40:38.324Z,40.08
2018-12-24T05:43:04.612Z,39.89
2018-12-24T05:45:30.947Z,40.09
2018-12-24T05:47:57.341Z,38.91
2018-12-24T05:50:23.717Z,39.47
2018-12-24T05:52:50.047Z,40.03
2018-12-24T05:55:16.334Z,40.20
2018-12-24T05:57:42.610Z,40.73
2018-12-24T06:00:09.040Z,40.55
2018-12-24T06:02:35.377Z,40.71
2018-12-24T06:05:01.738Z,41.15
2018-12-24T06:07:28.089Z,41.00
2018-12-24T06:09:54.377Z,40.28
2018-12-24T06:12:20.648Z,40.17
2018-12-24T06:14:47.092Z,39.72
2018-12-24T06:20:27.055Z,39.49
2018-12-24T06:22:53.334Z,39.39
2018-12-24T06:25:19.622Z,39.47
2018-12-24T06:27:45.934Z,39.16
2018-12-24T06:30:12.345Z,38.35
2018-12-24T06:33:20.170Z,38.32
2018-12-24T06:35:46.447Z,38.12
2018-12-24T06:38:12.838Z,38.26
2018-12-24T06:40:39.175Z,37.50
2018-12-24T06:43:05.558Z,37.52
2018-12-24T06:45:31.850Z,37.21
2018-12-24T06:47:58.263Z,37.08
2018-12-24T06:50:24.561Z,37.05
2018-12-24T06:52:50.843Z,35.95
2018-12-24T06:55:17.164Z,37.16
2018-12-24T06:57:43.460Z,36.98
2018-12-24T07:00:09.746Z,36.68
2018-12-24T07:02:36.062Z,36.67
2018-12-24T07:05:02.348Z,36.46
2018-12-24T07:07:28.643Z,37.07
2018-12-24T07:09:54.960Z,36.43
2018-12-24T07:12:21.253Z,36.73
2018-12-24T07:14:47.652Z,36.70
2018-12-24T07:17:14.083Z,36.69
2018-12-24T07:19:40.417Z,36.36
2018-12-24T07:22:06.865Z,36.62
2018-12-24T07:24:33.180Z,36.22
2018-12-24T07:26:59.585Z,35.61
2018-12-24T07:29:25.977Z,35.84
2018-12-24T07:31:52.306Z,35.84
2018-12-24T07:34:18.590Z,35.64
2018-12-24T07:36:44.885Z,36.22
2018-12-24T07:39:11.210Z,36.30
2018-12-24T07:41:37.488Z,36.56
2018-12-24T07:44:03.767Z,36.51
2018-12-24T07:46:30.092Z,36.44
2018-12-24T07:48:56.397Z,36.08
2018-12-24T07:51:22.677Z,35.37
2018-12-24T07:53:48.994Z,35.06
2018-12-24T07:56:15.297Z,35.38
2018-12-24T07:58:41.604Z,35.52
2018-12-24T08:01:07.923Z,35.62
2018-12-24T08:03:34.219Z,34.92
2018-12-24T08:06:00.655Z,34.93
2018-12-24T08:10:59.215Z,34.72
2018-12-24T08:13:25.508Z,34.57
2018-12-24T08:15:51.829Z,34.50
2018-12-24T08:18:18.230Z,34.39
2018-12-24T08:20:44.526Z,33.35
2018-12-24T08:23:10.967Z,34.66
2018-12-24T08:25:37.379Z,34.50
2018-12-24T08:28:03.792Z,33.72
2018-12-24T08:30:30.117Z,33.43
2018-12-24T08:32:56.408Z,33.69
2018-12-24T08:35:22.706Z,33.75
2018-12-24T08:37:49.139Z,32.15
2018-12-24T08:40:15.603Z,31.81
2018-12-24T08:42:41.935Z,31.68
2018-12-24T08:45:08.351Z,32.24
2018-12-24T08:47:34.637Z,31.72
2018-12-24T08:50:00.930Z,31.57
2018-12-24T08:52:27.257Z,31.01
2018-12-24T08:54:53.544Z,30.78
2018-12-24T08:57:19.887Z,30.56
2018-12-24T08:59:46.278Z,30.91
2018-12-24T09:02:12.563Z,30.11
2018-12-24T09:04:38.845Z,30.09
2018-12-24T09:07:05.175Z,29.90
2018-12-24T09:09:31.577Z,28.64
2018-12-24T09:11:57.991Z,30.06
2018-12-24T09:14:24.407Z,29.61
2018-12-24T09:16:50.711Z,29.62
2018-12-24T09:19:17.007Z,29.17
2018-12-24T09:21:43.320Z,29.00
2018-12-24T09:24:09.704Z,29.27
2018-12-24T09:26:35.988Z,29.28
2018-12-24T09:29:02.414Z,29.58
2018-12-24T09:31:28.708Z,29.89
2018-12-24T09:33:54.999Z,29.42
2018-12-24T09:36:21.337Z,29.96
2018-12-24T09:38:47.625Z,29.24
2018-12-24T09:41:13.905Z,28.45
2018-12-24T09:43:40.422Z,29.70
2018-12-24T09:46:06.830Z,29.38
2018-12-24T09:48:33.110Z,29.34
2018-12-24T09:50:59.575Z,29.67
2018-12-24T09:53:25.905Z,29.66
2018-12-24T09:55:52.201Z,29.43
2018-12-24T09:58:18.647Z,29.52
2018-12-24T10:00:44.926Z,29.43
2018-12-24T10:03:11.210Z,29.44
2018-12-24T10:05:37.527Z,29.09
2018-12-24T10:11:04.184Z,28.67
2018-12-24T10:13:30.498Z,29.74
2018-12-24T10:15:56.792Z,29.89
2018-12-24T10:18:23.228Z,29.98
2018-12-24T10:20:49.527Z,29.58
2018-12-24T10:23:15.808Z,28.80
2018-12-24T10:25:42.110Z,28.65
2018-12-24T10:28:08.528Z,29.49
2018-12-24T10:30:34.804Z,30.76
2018-12-24T10:33:01.225Z,30.27
2018-12-24T10:35:27.621Z,29.31
2018-12-24T10:45:38.473Z,28.83
2018-12-24T10:48:04.639Z,29.34
2018-12-24T10:50:30.814Z,28.42
2018-12-24T10:52:57.011Z,29.26
2018-12-24T10:55:23.186Z,29.56
2018-12-24T10:57:49.380Z,29.00
2018-12-24T11:00:15.591Z,29.29
2018-12-24T11:02:41.744Z,30.04
2018-12-24T11:05:07.894Z,29.38
2018-12-24T11:07:34.092Z,28.82
2018-12-24T11:13:04.899Z,30.09
2018-12-24T11:15:31.052Z,30.77
2018-12-24T11:17:57.205Z,30.28
2018-12-24T11:20:23.399Z,30.18
2018-12-24T11:22:49.593Z,30.76
2018-12-24T11:25:15.767Z,31.14
2018-12-24T11:27:42.089Z,31.77
2018-12-24T11:30:08.244Z,31.48
2018-12-24T11:32:34.404Z,31.44
2018-12-24T11:35:00.717Z,31.24
2018-12-24T11:37:26.869Z,32.18
2018-12-24T11:39:53.032Z,32.17
2018-12-24T11:42:19.312Z,32.21
2018-12-24T11:44:45.587Z,32.00
2018-12-24T11:47:11.757Z,31.95
2018-12-24T11:49:37.942Z,31.60
2018-12-24T11:52:04.190Z,32.64
2018-12-24T11:54:30.453Z,32.39
2018-12-24T11:56:56.655Z,32.52
2018-12-24T11:59:22.809Z,32.16
2018-12-24T12:01:49.074Z,32.01
2018-12-24T12:04:15.296Z,32.50
2018-12-24T12:06:41.568Z,33.11
2018-12-24T12:09:07.733Z,33.31
2018-12-24T12:11:34.092Z,33.07
2018-12-24T12:14:00.271Z,32.99
2018-12-24T12:16:26.421Z,33.05
2018-12-24T12:18:52.616Z,33.53
2018-12-24T12:21:18.767Z,32.96
2018-12-24T12:23:45.031Z,33.54
2018-12-24T12:26:11.233Z,33.81
2018-12-24T12:28:37.401Z,33.22
2018-12-24T12:31:03.566Z,32.92
2018-12-24T12:33:29.752Z,32.76
2018-12-24T12:35:55.922Z,33.08
2018-12-24T12:38:29.585Z,33.75
2018-12-24T12:40:50.234Z,33.54
2018-12-24T12:43:16.509Z,33.27
2018-12-24T12:45:50.970Z,33.71
2018-12-24T12:48:10.862Z,33.06
2018-12-24T12:50:37.047Z,33.48
2018-12-24T12:53:03.204Z,33.31
2018-12-24T12:55:29.388Z,33.13
2018-12-24T12:57:55.554Z,34.25
2018-12-24T13:03:14.201Z,33.27
2018-12-24T13:05:40.360Z,34.05
2018-12-24T13:08:06.416Z,34.23
2018-12-24T13:10:32.613Z,34.81
2018-12-24T13:12:58.878Z,34.56
2018-12-24T13:15:25.047Z,34.25
2018-12-24T13:17:51.393Z,34.84
2018-12-24T13:20:24.822Z,33.94
2018-12-24T13:22:45.595Z,34.59
2018-12-24T13:25:11.809Z,34.44
2018-12-24T13:27:38.185Z,34.55
2018-12-24T13:30:45.790Z,34.79
2018-12-24T13:33:11.953Z,34.72
2018-12-24T13:35:38.103Z,34.73
2018-12-24T13:38:04.293Z,34.65
2018-12-24T13:40:30.451Z,34.99
2018-12-24T13:42:56.617Z,35.01
2018-12-24T13:45:22.825Z,35.16
2018-12-24T13:47:49.093Z,35.85
2018-12-24T13:50:15.252Z,36.15
2018-12-24T13:52:41.456Z,36.37
2018-12-24T13:55:07.611Z,36.91
2018-12-24T14:04:28.527Z,37.91
2018-12-24T14:06:54.691Z,37.15
2018-12-24T14:09:20.858Z,37.06
2018-12-24T14:11:47.052Z,37.45
2018-12-24T14:14:13.230Z,36.94
2018-12-24T14:16:39.395Z,37.63
2018-12-24T14:26:01.327Z,37.42
2018-12-24T14:28:27.490Z,37.87
2018-12-24T14:30:53.656Z,38.02
2018-12-24T14:33:20.033Z,37.98
2018-12-24T14:35:46.307Z,38.23
2018-12-24T14:38:12.578Z,38.60
2018-12-24T14:40:38.781Z,37.82
2018-12-24T14:43:04.941Z,37.52
2018-12-24T14:45:31.203Z,37.02
2018-12-24T14:47:57.398Z,36.91
2018-12-24T14:50:23.726Z,37.37
2018-12-24T15:04:14.903Z,39.38
2018-12-24T15:06:41.066Z,39.53
2018-12-24T15:16:02.702Z,40.54
2018-12-24T15:18:28.862Z,41.32
2018-12-24T15:34:55.096Z,41.15
2018-12-24T15:37:21.312Z,42.74
2018-12-24T15:39:47.477Z,43.87
2018-12-24T15:44:46.070Z,46.14
2018-12-24T15:47:12.873Z,47.21
2018-12-24T15:49:40.465Z,48.59
2018-12-24T15:52:06.755Z,50.89
2018-12-24T15:54:32.921Z,54.20
2018-12-24T15:56:59.127Z,56.10
2018-12-24T15:59:25.291Z,56.91
2018-12-24T16:01:51.664Z,61.43
2018-12-24T16:04:17.866Z,62.09
2018-12-24T16:06:44.025Z,62.30
2018-12-24T16:09:10.230Z,65.29
2018-12-24T16:15:19.104Z,66.42
2018-12-24T16:17:45.311Z,65.82
2018-12-24T16:20:11.473Z,66.59
2018-12-24T16:22:37.667Z,64.41
2018-12-24T16:25:03.956Z,64.79
2018-12-24T16:27:30.128Z,63.37
2018-12-24T16:29:56.332Z,61.57
2018-12-24T16:32:22.491Z,60.60
2018-12-24T16:34:48.665Z,59.78
2018-12-24T16:37:14.972Z,59.77
2018-12-24T16:39:41.149Z,59.28
2018-12-24T16:42:07.324Z,58.15
2018-12-24T16:44:33.628Z,57.47
2018-12-24T16:46:59.801Z,56.50
2018-12-24T16:49:25.986Z,57.70
2018-12-24T16:51:52.174Z,57.38
2018-12-24T16:54:18.445Z,57.29
2018-12-24T16:56:44.603Z,57.30
2018-12-24T16:59:10.794Z,57.89
2018-12-24T17:01:36.957Z,57.58
2018-12-24T17:04:03.118Z,57.68
2018-12-24T17:06:29.324Z,57.48
2018-12-24T17:08:55.482Z,58.76
2018-12-24T17:11:21.648Z,58.43
2018-12-24T17:13:47.956Z,58.83
2018-12-24T17:16:14.215Z,57.88
2018-12-24T17:18:40.434Z,57.18
2018-12-24T17:21:06.659Z,58.52
2018-12-24T17:23:32.830Z,58.36
2018-12-24T17:25:58.989Z,58.55
2018-12-24T17:28:25.180Z,58.17
2018-12-24T17:30:51.346Z,57.41
2018-12-24T17:33:17.518Z,58.00
2018-12-24T17:35:43.718Z,58.04
2018-12-24T17:38:09.886Z,58.30
2018-12-24T17:40:36.192Z,58.74
2018-12-24T17:43:02.389Z,58.54
2018-12-24T17:45:28.556Z,58.57
2018-12-24T17:47:54.710Z,59.81
2018-12-24T17:50:20.905Z,59.08
2018-12-24T17:52:47.070Z,58.73
2018-12-24T17:55:13.238Z,58.03
2018-12-24T17:57:39.539Z,57.48
2018-12-24T18:00:05.803Z,56.64
2018-12-24T18:02:31.975Z,56.85
2018-12-24T18:04:58.677Z,56.78
2018-12-24T18:07:25.174Z,55.71
2018-12-24T18:09:51.461Z,54.92
2018-12-24T18:12:18.083Z,54.63
2018-12-24T18:14:44.549Z,54.61
2018-12-24T18:17:10.858Z,54.51
2018-12-24T18:19:37.189Z,54.35
2018-12-24T18:22:03.348Z,54.59
2018-12-24T18:24:29.518Z,53.20
2018-12-24T18:26:55.728Z,53.97
2018-12-24T18:29:22.099Z,54.16
2018-12-24T18:31:48.256Z,54.05
2018-12-24T18:34:14.471Z,53.05
2018-12-24T18:36:40.732Z,54.03
2018-12-24T18:39:06.895Z,53.02
2018-12-24T18:41:33.083Z,52.91
2018-12-24T18:43:59.241Z,53.38
2018-12-24T18:46:25.399Z,52.58
2018-12-24T18:48:51.595Z,53.33
2018-12-24T18:51:17.751Z,53.43
2018-12-24T18:53:43.909Z,53.55
2018-12-24T18:56:10.098Z,54.61
2018-12-24T18:58:36.260Z,54.17
2018-12-24T19:01:02.425Z,53.42
2018-12-24T19:06:07.642Z,55.19
2018-12-24T19:08:33.943Z,54.84
2018-12-24T19:11:00.335Z,54.60
2018-12-24T19:13:26.530Z,53.94
2018-12-24T19:15:52.688Z,54.58
2018-12-24T19:18:18.851Z,55.03
2018-12-24T19:20:45.189Z,54.44
2018-12-24T19:23:11.351Z,53.24
2018-12-24T19:25:37.525Z,53.17
2018-12-24T19:28:03.715Z,53.30
2018-12-24T19:30:29.986Z,51.99
2018-12-24T19:32:56.171Z,52.84
2018-12-24T19:35:22.381Z,52.74
2018-12-24T19:37:48.541Z,53.61
2018-12-24T19:40:14.695Z,54.85
2018-12-24T19:42:40.896Z,54.62
2018-12-24T19:45:07.071Z,54.49
2018-12-24T19:47:33.229Z,53.70
2018-12-24T19:49:59.432Z,54.48
2018-12-24T19:52:25.944Z,53.90
2018-12-24T19:54:52.108Z,55.21
2018-12-24T19:57:19.255Z,53.09
2018-12-24T19:59:45.416Z,54.29
2018-12-24T20:02:17.025Z,54.93
2018-12-24T20:04:43.224Z,55.59
2018-12-24T20:07:09.380Z,55.26
2018-12-24T20:09:35.928Z,55.70
2018-12-24T20:12:02.253Z,55.23
2018-12-24T20:14:28.423Z,54.05
2018-12-24T20:16:55.057Z,53.92
2018-12-24T20:19:21.255Z,55.93
2018-12-24T20:21:47.558Z,55.23
2018-12-24T20:24:13.845Z,56.27
2018-12-24T20:26:40.034Z,54.46
2018-12-24T20:29:06.237Z,56.16
2018-12-24T20:31:32.508Z,54.98
2018-12-24T20:33:58.648Z,55.54
2018-12-24T20:36:24.799Z,54.95
2018-12-24T20:38:50.960Z,55.73
2018-12-24T20:41:17.260Z,56.32
2018-12-24T20:43:43.423Z,55.23
2018-12-24T20:46:09.702Z,56.23
2018-12-24T20:48:35.896Z,54.98
2018-12-24T20:51:02.220Z,55.21
2018-12-24T20:53:28.420Z,55.70
2018-12-24T20:55:54.605Z,55.30
2018-12-24T20:58:21.210Z,54.92
2018-12-24T21:00:48.391Z,55.14
2018-12-24T21:03:15.640Z,56.58
2018-12-24T21:05:41.815Z,55.64
2018-12-24T21:08:08.072Z,56.39
2018-12-24T21:10:34.377Z,55.96
2018-12-24T21:13:00.543Z,55.92
2018-12-24T21:15:26.796Z,56.36
2018-12-24T21:17:53.148Z,57.90
2018-12-24T21:20:19.310Z,58.08
2018-12-24T21:22:45.575Z,57.34
2018-12-24T21:25:11.770Z,56.87
2018-12-24T21:27:37.943Z,57.69
2018-12-24T21:30:45.533Z,58.08
2018-12-24T21:33:11.685Z,58.33
2018-12-24T21:35:38.209Z,58.51
2018-12-24T21:38:04.402Z,57.61
2018-12-24T21:40:30.663Z,58.19
2018-12-24T21:42:56.824Z,58.42
2018-12-24T21:45:23.129Z,57.49
2018-12-24T21:47:49.288Z,58.29
2018-12-24T21:50:15.443Z,56.58
2018-12-24T21:52:41.640Z,58.59
2018-12-24T21:55:07.798Z,58.31
2018-12-24T21:57:33.960Z,58.18
2018-12-24T22:00:41.561Z,58.65
2018-12-24T22:03:07.817Z,58.87
2018-12-24T22:08:25.914Z,58.92
2018-12-24T22:10:52.172Z,58.50
2018-12-24T22:13:18.472Z,58.06
2018-12-24T22:15:44.794Z,58.33
2018-12-24T22:18:10.967Z,59.11
2018-12-24T22:20:37.125Z,59.30
2018-12-24T22:23:03.440Z,59.85
2018-12-24T22:25:29.605Z,58.38
2018-12-24T22:27:55.773Z,60.12
2018-12-24T22:30:21.961Z,59.16
2018-12-24T22:32:48.120Z,59.89
2018-12-24T22:35:14.276Z,60.20
2018-12-24T22:37:40.468Z,59.65
2018-12-24T22:40:06.759Z,60.11
2018-12-24T22:42:32.925Z,59.98
2018-12-24T22:44:59.117Z,59.82
2018-12-24T22:47:25.275Z,59.04
2018-12-24T22:49:51.437Z,59.17
2018-12-24T22:52:17.617Z,59.53
2018-12-24T22:54:43.778Z,58.10
2018-12-24T22:57:09.947Z,58.98
2018-12-24T22:59:36.137Z,59.27
2018-12-24T23:04:49.924Z,59.39
2018-12-24T23:07:16.078Z,58.44
2018-12-24T23:09:42.232Z,57.98
2018-12-24T23:12:08.426Z,58.61
2018-12-24T23:14:34.580Z,56.45
2018-12-24T23:17:00.735Z,57.47
2018-12-24T23:20:08.349Z,57.77
2018-12-24T23:22:34.511Z,59.32
2018-12-24T23:25:00.684Z,59.34
2018-12-24T23:27:26.978Z,59.07
2018-12-24T23:29:53.231Z,59.23
2018-12-24T23:32:19.381Z,58.71
2018-12-24T23:34:45.663Z,57.34
2018-12-24T23:37:31.575Z,58.86
2018-12-24T23:39:57.768Z,60.32
2018-12-24T23:42:24.032Z,60.13
2018-12-24T23:44:50.193Z,59.81
2018-12-24T23:47:16.469Z,60.22
2018-12-24T23:49:42.956Z,60.00
2018-12-24T23:52:09.099Z,58.96
2018-12-24T23:54:35.289Z,60.27
2018-12-24T23:57:01.446Z,59.67
2018-12-24T23:59:27.601Z,59.67
